createdAt,value
2023-01-22T00:01:19.216Z,13.43
2023-01-22T00:03:47.186Z,14.70
2023-01-22T00:06:14.956Z,25.50
2023-01-22T00:08:43.223Z,13.15
2023-01-22T00:11:11.295Z,15.70
2023-01-22T00:13:39.177Z,13.98
2023-01-22T00:16:07.583Z,23.52
2023-01-22T00:18:35.287Z,28.73
2023-01-22T00:21:02.580Z,25.25
2023-01-22T00:23:30.160Z,25.83
2023-01-22T00:26:05.449Z,38.13
2023-01-22T00:28:33.221Z,29.33
2023-01-22T00:31:03.080Z,23.35
2023-01-22T00:33:30.493Z,25.65
2023-01-22T00:36:03.177Z,44.88
2023-01-22T00:38:30.868Z,19.13
2023-01-22T00:41:01.602Z,17.90
2023-01-22T00:43:31.718Z,17.10
2023-01-22T00:45:58.795Z,12.77
2023-01-22T00:48:26.277Z,14.57
2023-01-22T00:50:53.408Z,18.58
2023-01-22T00:53:21.261Z,22.60
2023-01-22T00:55:58.099Z,13.55
2023-01-22T00:58:26.714Z,19.48
2023-01-22T01:00:53.938Z,14.10
2023-01-22T01:03:27.644Z,28.25
2023-01-22T01:05:55.132Z,26.05
2023-01-22T01:08:23.162Z,14.60
2023-01-22T01:10:54.941Z,35.08
2023-01-22T01:13:25.259Z,31.10
2023-01-22T01:16:02.921Z,30.05
2023-01-22T01:18:31.548Z,18.48
2023-01-22T01:21:00.275Z,20.08
2023-01-22T01:23:29.119Z,23.02
2023-01-22T01:25:56.519Z,25.73
2023-01-22T01:28:24.963Z,28.30
2023-01-22T01:30:52.240Z,23.88
2023-01-22T01:33:19.891Z,28.65
2023-01-22T01:35:47.049Z,29.52
2023-01-22T01:38:15.373Z,25.40
2023-01-22T01:40:44.342Z,17.50
2023-01-22T01:43:16.234Z,14.10
2023-01-22T01:45:43.705Z,21.55
2023-01-22T01:48:35.589Z,11.90
2023-01-22T01:51:09.723Z,33.33
2023-01-22T01:53:39.795Z,28.83
2023-01-22T01:58:41.840Z,33.17
2023-01-22T02:01:14.156Z,28.27
2023-01-22T02:03:42.019Z,32.90
2023-01-22T02:06:13.844Z,23.67
2023-01-22T02:08:44.146Z,26.35
2023-01-22T02:11:12.165Z,21.75
2023-01-22T02:13:44.427Z,22.35
2023-01-22T02:16:12.096Z,18.08
2023-01-22T02:18:41.077Z,19.70
2023-01-22T02:21:30.122Z,21.90
2023-01-22T02:24:01.277Z,15.95
2023-01-22T02:26:29.296Z,16.80
2023-01-22T02:28:57.259Z,9.80
2023-01-22T02:31:25.305Z,29.77
2023-01-22T02:33:54.727Z,20.77
2023-01-22T02:36:22.323Z,37.30
2023-01-22T02:38:50.210Z,48.47
2023-01-22T02:41:17.518Z,34.40
2023-01-22T02:43:44.881Z,31.63
2023-01-22T02:46:12.342Z,30.88
2023-01-22T02:48:39.734Z,29.20
2023-01-22T02:51:07.030Z,25.10
2023-01-22T02:53:34.773Z,34.65
2023-01-22T02:56:12.204Z,15.48
2023-01-22T02:58:39.983Z,24.05
2023-01-22T03:01:19.170Z,20.23
2023-01-22T03:03:51.064Z,27.20
2023-01-22T03:06:21.678Z,34.38
2023-01-22T03:08:57.616Z,23.60
2023-01-22T03:11:28.265Z,16.55
2023-01-22T03:14:15.198Z,14.40
2023-01-22T03:17:01.933Z,20.02
2023-01-22T03:19:48.548Z,31.38
2023-01-22T03:22:17.464Z,14.13
2023-01-22T03:24:50.581Z,17.73
2023-01-22T03:27:19.346Z,18.00
2023-01-22T03:29:46.933Z,18.88
2023-01-22T03:32:14.357Z,17.48
2023-01-22T03:34:42.041Z,16.27
2023-01-22T03:37:13.250Z,13.93
2023-01-22T03:39:41.014Z,15.23
2023-01-22T03:42:09.082Z,30.05
2023-01-22T03:44:36.759Z,29.17
2023-01-22T03:47:03.764Z,13.48
2023-01-22T03:49:31.618Z,22.05
2023-01-22T03:51:58.669Z,20.25
2023-01-22T03:54:26.171Z,17.95
2023-01-22T03:56:55.582Z,20.95
2023-01-22T03:59:23.047Z,34.13
2023-01-22T04:01:51.107Z,29.70
2023-01-22T04:04:18.579Z,21.95
2023-01-22T04:06:45.567Z,23.90
2023-01-22T04:09:14.160Z,25.95
2023-01-22T04:11:41.106Z,22.92
2023-01-22T04:14:08.498Z,14.20
2023-01-22T04:16:36.118Z,27.40
2023-01-22T04:19:03.607Z,18.83
2023-01-22T04:21:30.739Z,15.05
2023-01-22T04:23:59.139Z,20.10
2023-01-22T04:26:26.191Z,23.15
2023-01-22T04:28:53.477Z,21.70
2023-01-22T04:31:21.769Z,12.35
2023-01-22T04:33:49.233Z,26.05
2023-01-22T04:36:18.278Z,31.35
2023-01-22T04:38:47.658Z,31.55
2023-01-22T04:41:14.677Z,38.40
2023-01-22T04:43:42.134Z,23.98
2023-01-22T04:46:09.330Z,41.92
2023-01-22T04:48:37.086Z,27.52
2023-01-22T04:51:04.459Z,35.97
2023-01-22T04:53:31.868Z,18.50
2023-01-22T04:55:59.401Z,23.48
2023-01-22T04:58:26.834Z,14.15
2023-01-22T05:00:56.937Z,16.77
2023-01-22T05:03:25.215Z,24.90
2023-01-22T05:05:52.374Z,16.48
2023-01-22T05:08:20.486Z,12.63
2023-01-22T05:10:49.774Z,27.23
2023-01-22T05:13:17.596Z,17.23
2023-01-22T05:15:45.567Z,15.50
2023-01-22T05:18:16.525Z,11.85
2023-01-22T05:20:43.885Z,13.02
2023-01-22T05:23:11.587Z,14.60
2023-01-22T05:25:40.479Z,16.73
2023-01-22T05:28:08.023Z,13.43
2023-01-22T05:30:35.067Z,12.50
2023-01-22T05:33:03.054Z,31.33
2023-01-22T05:35:30.555Z,14.50
2023-01-22T05:37:57.936Z,14.30
2023-01-22T05:40:24.994Z,17.92
2023-01-22T05:42:53.674Z,18.90
2023-01-22T05:45:21.147Z,19.63
2023-01-22T05:47:53.722Z,20.30
2023-01-22T05:50:22.082Z,15.32
2023-01-22T05:52:55.040Z,21.23
2023-01-22T05:55:22.139Z,25.35
2023-01-22T05:57:50.045Z,16.23
2023-01-22T06:00:18.801Z,28.42
2023-01-22T06:05:13.666Z,20.80
2023-01-22T06:10:26.387Z,20.92
2023-01-22T06:12:53.807Z,36.65
2023-01-22T06:15:21.167Z,18.60
2023-01-22T06:25:46.813Z,19.13
2023-01-22T06:28:17.625Z,17.25
2023-01-22T06:30:47.377Z,21.08
2023-01-22T06:33:15.307Z,25.10
2023-01-22T06:35:42.742Z,32.67
2023-01-22T06:38:11.456Z,14.57
2023-01-22T06:40:38.447Z,21.10
2023-01-22T06:43:11.457Z,24.52
2023-01-22T06:45:44.830Z,23.80
2023-01-22T06:48:13.461Z,22.08
2023-01-22T06:50:40.739Z,22.40
2023-01-22T06:53:10.652Z,30.05
2023-01-22T06:55:38.215Z,28.75
2023-01-22T06:58:08.632Z,19.40
2023-01-22T07:00:35.758Z,22.08
2023-01-22T07:03:07.474Z,27.42
2023-01-22T07:05:36.683Z,24.67
2023-01-22T07:16:32.958Z,28.70
2023-01-22T07:19:01.252Z,27.77
2023-01-22T07:21:28.509Z,20.25
2023-01-22T07:23:57.876Z,18.38
2023-01-22T07:26:28.407Z,18.95
2023-01-22T07:28:56.115Z,31.42
2023-01-22T07:31:26.908Z,21.60
2023-01-22T07:33:54.957Z,17.70
2023-01-22T07:36:26.039Z,25.08
2023-01-22T07:39:03.154Z,18.27
2023-01-22T07:41:38.617Z,19.63
2023-01-22T07:46:50.935Z,51.17
2023-01-22T07:50:02.968Z,31.55
2023-01-22T07:52:33.756Z,17.15
2023-01-22T07:55:01.295Z,21.50
2023-01-22T08:00:28.502Z,17.25
2023-01-22T08:03:05.916Z,21.60
2023-01-22T08:06:01.307Z,19.52
2023-01-22T08:08:29.810Z,13.23
2023-01-22T08:11:05.122Z,17.63
2023-01-22T08:13:35.528Z,20.20
2023-01-22T08:16:02.854Z,17.60
2023-01-22T08:18:30.385Z,12.25
2023-01-22T08:21:01.395Z,19.95
2023-01-22T08:23:29.139Z,16.65
2023-01-22T08:29:08.589Z,10.15
2023-01-22T08:31:51.224Z,14.50
2023-01-22T08:34:40.514Z,22.35
2023-01-22T08:37:23.420Z,29.70
2023-01-22T08:39:51.712Z,21.90
2023-01-22T08:42:19.186Z,19.60
2023-01-22T08:44:58.127Z,14.70
2023-01-22T08:47:25.904Z,21.95
2023-01-22T08:49:58.990Z,20.13
2023-01-22T08:52:26.106Z,23.58
2023-01-22T08:54:53.900Z,13.63
2023-01-22T08:57:21.007Z,22.70
2023-01-22T09:00:18.448Z,14.38
2023-01-22T09:02:46.974Z,16.20
2023-01-22T09:05:14.808Z,12.95
2023-01-22T09:07:41.970Z,11.75
2023-01-22T09:10:12.403Z,19.02
2023-01-22T09:12:48.145Z,17.65
2023-01-22T09:15:15.699Z,14.30
2023-01-22T09:17:42.948Z,9.70
2023-01-22T09:20:17.235Z,13.68
2023-01-22T09:22:48.701Z,15.38
2023-01-22T09:25:40.401Z,19.30
2023-01-22T09:28:12.432Z,16.20
2023-01-22T09:30:42.900Z,15.48
2023-01-22T09:33:10.133Z,9.77
2023-01-22T09:35:37.663Z,10.75
2023-01-22T09:38:05.910Z,11.15
2023-01-22T09:40:48.556Z,16.23
2023-01-22T09:46:01.754Z,15.15
2023-01-22T09:48:44.104Z,13.27
2023-01-22T09:51:15.982Z,30.65
2023-01-22T09:53:50.764Z,15.13
2023-01-22T09:56:23.315Z,11.98
2023-01-22T09:58:52.888Z,15.27
2023-01-22T10:01:24.860Z,12.20
2023-01-22T10:04:02.189Z,23.15
2023-01-22T10:06:31.616Z,13.70
2023-01-22T10:09:10.641Z,10.98
2023-01-22T10:11:38.731Z,19.35
2023-01-22T10:14:15.294Z,16.80
2023-01-22T10:16:42.667Z,14.88
2023-01-22T10:19:23.851Z,12.85
2023-01-22T10:22:21.614Z,15.77
2023-01-22T10:24:49.762Z,16.05
2023-01-22T10:27:26.041Z,13.10
2023-01-22T10:30:16.840Z,18.63
2023-01-22T10:32:48.950Z,12.80
2023-01-22T10:35:23.375Z,12.15
2023-01-22T10:37:58.725Z,15.93
2023-01-22T10:40:38.343Z,8.98
2023-01-22T10:43:23.325Z,13.63
2023-01-22T10:45:54.510Z,15.50
2023-01-22T10:48:58.540Z,17.70
2023-01-22T10:51:35.722Z,14.10
2023-01-22T10:57:35.782Z,15.73
2023-01-22T11:00:16.168Z,8.40
2023-01-22T11:02:49.336Z,19.35
2023-01-22T11:05:34.035Z,14.90
2023-01-22T11:08:07.878Z,11.13
2023-01-22T11:10:43.842Z,13.98
2023-01-22T11:13:24.831Z,17.15
2023-01-22T11:16:16.846Z,20.58
2023-01-22T11:18:47.190Z,12.70
2023-01-22T11:21:18.250Z,14.68
2023-01-22T11:23:56.603Z,20.30
2023-01-22T11:26:51.935Z,19.65
2023-01-22T11:30:03.352Z,18.30
2023-01-22T11:32:59.847Z,22.08
2023-01-22T11:35:45.023Z,27.98
2023-01-22T11:38:27.488Z,22.08
2023-01-22T11:41:05.668Z,37.47
2023-01-22T11:43:40.336Z,22.92
2023-01-22T11:46:36.286Z,17.65
2023-01-22T11:49:40.894Z,17.17
2023-01-22T11:52:19.395Z,30.65
2023-01-22T11:55:06.640Z,18.85
2023-01-22T11:57:55.496Z,24.52
2023-01-22T12:00:35.394Z,27.88
2023-01-22T12:06:12.917Z,25.73
2023-01-22T12:08:58.478Z,28.10
2023-01-22T12:11:31.429Z,24.88
2023-01-22T12:14:24.675Z,21.67
2023-01-22T12:17:22.111Z,22.20
2023-01-22T12:20:30.745Z,25.60
2023-01-22T12:23:41.607Z,22.23
2023-01-22T12:26:24.378Z,25.00
2023-01-22T12:29:00.904Z,26.33
2023-01-22T12:31:35.462Z,17.40
2023-01-22T12:34:10.238Z,23.70
2023-01-22T12:36:38.504Z,26.20
2023-01-22T12:39:29.279Z,30.02
2023-01-22T12:42:38.343Z,42.88
2023-01-22T12:54:26.255Z,27.17
2023-01-22T12:56:57.761Z,25.77
2023-01-22T12:59:41.941Z,25.42
2023-01-22T13:02:31.356Z,27.23
2023-01-22T13:05:15.678Z,23.85
2023-01-22T13:07:43.727Z,26.45
2023-01-22T13:10:20.322Z,17.23
2023-01-22T13:13:15.308Z,27.58
2023-01-22T13:15:42.972Z,20.40
2023-01-22T13:18:23.800Z,20.70
2023-01-22T13:21:10.488Z,32.47
2023-01-22T13:23:44.082Z,21.42
2023-01-22T13:26:18.637Z,15.98
2023-01-22T13:28:57.390Z,18.63
2023-01-22T13:31:29.743Z,31.23
2023-01-22T13:33:59.972Z,26.60
2023-01-22T13:36:30.539Z,15.90
2023-01-22T13:39:00.760Z,20.00
2023-01-22T13:41:37.344Z,18.50
2023-01-22T13:44:07.547Z,16.15
2023-01-22T13:46:38.965Z,16.00
2023-01-22T13:49:20.063Z,19.95
2023-01-22T13:51:48.031Z,17.35
2023-01-22T13:54:47.619Z,16.45
2023-01-22T13:57:20.466Z,16.45
2023-01-22T14:00:00.953Z,13.25
2023-01-22T14:02:34.838Z,17.85
2023-01-22T14:05:03.289Z,13.13
2023-01-22T14:07:36.934Z,15.40
2023-01-22T14:10:30.833Z,15.73
2023-01-22T14:13:11.855Z,16.23
2023-01-22T14:15:43.725Z,17.10
2023-01-22T14:18:31.259Z,13.10
2023-01-22T14:23:45.229Z,13.38
2023-01-22T14:26:12.938Z,18.30
2023-01-22T14:28:40.309Z,16.85
2023-01-22T14:34:02.696Z,15.82
2023-01-22T14:48:18.689Z,12.75
2023-01-22T14:50:49.780Z,8.63
2023-01-22T15:09:13.306Z,20.65
2023-01-22T15:12:09.331Z,14.85
2023-01-22T15:14:36.680Z,15.30
2023-01-22T15:17:09.032Z,16.80
2023-01-22T15:22:19.053Z,11.73
2023-01-22T15:36:05.079Z,10.88
2023-01-22T15:38:43.362Z,14.07
2023-01-22T15:41:29.601Z,13.63
2023-01-22T15:44:01.241Z,10.57
2023-01-22T15:46:37.264Z,9.32
2023-01-22T15:49:05.481Z,16.83
2023-01-22T15:51:33.020Z,10.75
2023-01-22T15:54:02.623Z,13.88
2023-01-22T15:56:32.646Z,12.23
2023-01-22T15:59:00.136Z,21.60
2023-01-22T16:01:28.414Z,11.57
2023-01-22T16:03:57.232Z,15.15
2023-01-22T16:06:27.692Z,22.70
2023-01-22T16:08:59.879Z,13.77
2023-01-22T16:11:29.287Z,15.00
2023-01-22T16:13:57.339Z,15.90
2023-01-22T16:19:35.771Z,20.75
2023-01-22T16:22:03.438Z,16.75
2023-01-22T16:24:30.692Z,18.30
2023-01-22T16:26:58.953Z,13.35
2023-01-22T16:29:34.663Z,12.82
2023-01-22T16:32:02.301Z,15.18
2023-01-22T16:34:29.562Z,16.45
2023-01-22T16:36:59.183Z,18.25
2023-01-22T16:39:26.918Z,16.73
2023-01-22T16:41:54.895Z,22.30
2023-01-22T16:44:27.494Z,12.07
2023-01-22T16:49:42.021Z,17.67
2023-01-22T16:52:22.054Z,6.28
2023-01-22T16:54:50.998Z,13.93
2023-01-22T16:57:23.108Z,12.93
2023-01-22T16:59:50.172Z,14.88
2023-01-22T17:02:19.385Z,11.80
2023-01-22T17:04:46.853Z,8.15
2023-01-22T17:07:27.810Z,13.23
2023-01-22T17:10:00.008Z,13.90
2023-01-22T17:12:29.620Z,9.07
2023-01-22T17:14:56.807Z,20.10
2023-01-22T17:17:24.375Z,12.20
2023-01-22T17:19:53.865Z,10.80
2023-01-22T17:22:21.535Z,11.38
2023-01-22T17:24:48.652Z,12.98
2023-01-22T17:27:20.015Z,8.48
2023-01-22T17:29:47.503Z,12.93
2023-01-22T17:32:15.293Z,6.80
2023-01-22T17:38:15.969Z,9.32
2023-01-22T17:40:44.465Z,8.45
2023-01-22T17:46:13.283Z,7.88
2023-01-22T17:48:45.904Z,15.75
2023-01-22T17:54:37.507Z,19.80
2023-01-22T17:57:10.321Z,18.05
2023-01-22T17:59:44.968Z,13.50
2023-01-22T18:02:13.971Z,13.10
2023-01-22T18:04:41.223Z,10.35
2023-01-22T18:07:11.495Z,8.90
2023-01-22T18:09:39.344Z,20.58
2023-01-22T18:14:49.544Z,8.52
2023-01-22T18:17:17.385Z,9.77
2023-01-22T18:19:44.635Z,10.13
2023-01-22T18:22:12.250Z,18.77
2023-01-22T18:24:44.598Z,11.95
2023-01-22T18:27:24.341Z,12.65
2023-01-22T18:29:54.791Z,8.93
2023-01-22T18:32:23.178Z,14.20
2023-01-22T18:34:52.290Z,11.90
2023-01-22T18:37:20.580Z,9.70
2023-01-22T18:39:50.162Z,11.70
2023-01-22T18:42:24.820Z,6.40
2023-01-22T18:44:58.800Z,8.40
2023-01-22T18:47:27.483Z,9.93
2023-01-22T18:49:56.076Z,8.40
2023-01-22T18:52:23.541Z,13.38
2023-01-22T18:54:50.714Z,14.20
2023-01-22T18:57:24.108Z,8.80
2023-01-22T18:59:54.219Z,14.07
2023-01-22T19:02:38.878Z,14.80
2023-01-22T19:05:12.065Z,6.35
2023-01-22T19:07:39.260Z,11.55
2023-01-22T19:10:09.943Z,10.75
2023-01-22T19:12:37.182Z,9.90
2023-01-22T19:15:09.167Z,11.20
2023-01-22T19:21:27.024Z,8.18
2023-01-22T19:27:25.506Z,8.13
2023-01-22T19:29:53.053Z,11.70
2023-01-22T19:32:27.751Z,9.13
2023-01-22T19:34:57.638Z,15.27
2023-01-22T19:37:25.316Z,13.00
2023-01-22T19:39:52.835Z,9.30
2023-01-22T19:42:20.204Z,11.60
2023-01-22T19:44:49.563Z,10.23
2023-01-22T19:47:17.763Z,6.97
2023-01-22T19:49:45.556Z,11.25
2023-01-22T19:52:15.657Z,9.77
2023-01-22T19:54:47.420Z,12.35
2023-01-22T19:57:17.275Z,7.72
2023-01-22T19:59:46.073Z,11.00
2023-01-22T20:02:14.556Z,9.25
2023-01-22T20:04:52.623Z,10.38
2023-01-22T20:07:21.646Z,6.75
2023-01-22T20:09:49.165Z,10.85
2023-01-22T20:12:16.454Z,7.15
2023-01-22T20:14:44.036Z,14.30
2023-01-22T20:17:13.194Z,11.55
2023-01-22T20:19:43.291Z,10.27
2023-01-22T20:22:10.963Z,6.45
2023-01-22T20:27:23.621Z,9.25
2023-01-22T20:29:51.181Z,8.93
2023-01-22T20:32:18.625Z,9.20
2023-01-22T20:34:54.836Z,13.32
2023-01-22T20:37:22.269Z,9.75
2023-01-22T20:40:06.913Z,8.93
2023-01-22T20:42:36.651Z,9.98
2023-01-22T20:45:04.727Z,8.38
2023-01-22T20:47:36.808Z,5.00
2023-01-22T20:50:06.729Z,7.18
2023-01-22T20:52:34.289Z,8.88
2023-01-22T20:55:02.581Z,8.57
2023-01-22T20:57:32.536Z,14.85
2023-01-22T20:59:59.763Z,13.68
2023-01-22T21:02:27.537Z,9.00
2023-01-22T21:04:57.270Z,9.48
2023-01-22T21:07:24.819Z,11.95
2023-01-22T21:09:55.186Z,17.38
2023-01-22T21:12:22.700Z,9.50
2023-01-22T21:14:53.744Z,15.23
2023-01-22T21:17:27.364Z,14.52
2023-01-22T21:19:59.019Z,10.40
2023-01-22T21:22:30.472Z,13.32
2023-01-22T21:25:02.368Z,10.60
2023-01-22T21:27:29.829Z,7.78
2023-01-22T21:29:57.939Z,9.85
2023-01-22T21:32:31.242Z,9.85
2023-01-22T21:34:58.971Z,7.07
2023-01-22T21:37:29.214Z,8.65
2023-01-22T21:39:58.106Z,11.27
2023-01-22T21:42:47.372Z,8.50
2023-01-22T21:45:33.230Z,6.93
2023-01-22T21:48:00.897Z,7.50
2023-01-22T21:50:27.979Z,7.43
2023-01-22T21:52:55.394Z,10.40
2023-01-22T21:55:24.559Z,11.38
2023-01-22T21:57:54.566Z,15.02
2023-01-22T22:00:23.811Z,9.70
2023-01-22T22:02:54.898Z,11.23
2023-01-22T22:05:24.586Z,10.82
2023-01-22T22:07:52.062Z,9.93
2023-01-22T22:10:20.444Z,13.70
2023-01-22T22:12:48.239Z,18.42
2023-01-22T22:15:17.659Z,10.93
2023-01-22T22:17:45.634Z,9.57
2023-01-22T22:20:14.996Z,8.48
2023-01-22T22:22:42.394Z,16.45
2023-01-22T22:25:10.090Z,19.08
2023-01-22T22:27:37.852Z,13.90
2023-01-22T22:30:05.590Z,8.02
2023-01-22T22:32:32.968Z,14.07
2023-01-22T22:35:00.036Z,10.57
2023-01-22T22:37:27.397Z,12.20
2023-01-22T22:39:55.097Z,10.13
2023-01-22T22:42:22.590Z,16.85
2023-01-22T22:44:49.632Z,12.07
2023-01-22T22:47:17.030Z,18.10
2023-01-22T22:49:46.628Z,13.75
2023-01-22T22:52:18.645Z,12.35
2023-01-22T22:54:45.829Z,15.48
2023-01-22T22:57:15.811Z,12.07
2023-01-22T22:59:42.878Z,11.45
2023-01-22T23:02:10.394Z,15.70
2023-01-22T23:04:37.646Z,19.20
2023-01-22T23:07:06.819Z,10.40
2023-01-22T23:09:34.016Z,18.73
2023-01-22T23:12:03.356Z,14.05
2023-01-22T23:14:32.990Z,15.25
2023-01-22T23:17:07.003Z,9.80
2023-01-22T23:19:36.089Z,11.32
2023-01-22T23:22:04.036Z,13.15
2023-01-22T23:24:32.181Z,11.30
2023-01-22T23:26:59.801Z,4.80
2023-01-22T23:29:27.664Z,10.27
2023-01-22T23:31:56.384Z,16.88
2023-01-22T23:34:23.532Z,12.68
2023-01-22T23:36:51.556Z,9.68
2023-01-22T23:39:23.034Z,11.02
2023-01-22T23:41:52.722Z,7.85
2023-01-22T23:44:20.048Z,16.77
2023-01-22T23:46:48.074Z,13.52
2023-01-22T23:49:15.352Z,15.50
2023-01-22T23:51:44.743Z,5.20
2023-01-22T23:54:12.011Z,8.13
2023-01-22T23:56:39.689Z,6.03
2023-01-22T23:59:07.084Z,8.30
